createdAt,value
2018-07-22T00:02:13.210Z,19.41
2018-07-22T00:05:37.872Z,19.19
2018-07-22T00:09:02.608Z,19.18
2018-07-22T00:12:27.402Z,19.56
2018-07-22T00:15:52.128Z,19.24
2018-07-22T00:19:16.822Z,19.63
2018-07-22T00:22:41.561Z,19.11
2018-07-22T00:26:06.312Z,19.18
2018-07-22T00:29:31.031Z,19.38
2018-07-22T00:32:55.796Z,19.11
2018-07-22T00:36:20.586Z,19.50
2018-07-22T00:39:45.316Z,19.11
2018-07-22T00:43:10.104Z,19.13
2018-07-22T00:46:34.870Z,19.44
2018-07-22T00:49:59.535Z,19.51
2018-07-22T00:53:24.330Z,19.51
2018-07-22T00:56:49.002Z,19.17
2018-07-22T01:00:13.800Z,19.55
2018-07-22T01:03:38.457Z,18.85
2018-07-22T01:07:03.210Z,18.92
2018-07-22T01:10:27.896Z,19.38
2018-07-22T01:13:52.583Z,18.78
2018-07-22T01:17:17.279Z,18.93
2018-07-22T01:20:41.987Z,18.70
2018-07-22T01:24:06.768Z,18.60
2018-07-22T01:27:31.135Z,19.06
2018-07-22T01:30:55.836Z,19.06
2018-07-22T01:34:20.508Z,18.75
2018-07-22T01:37:45.153Z,18.59
2018-07-22T01:41:09.599Z,19.30
2018-07-22T01:44:34.263Z,18.73
2018-07-22T01:47:58.922Z,18.77
2018-07-22T01:51:23.615Z,18.53
2018-07-22T01:54:48.281Z,18.34
2018-07-22T01:58:12.968Z,18.34
2018-07-22T02:01:37.816Z,18.21
2018-07-22T02:05:02.460Z,18.14
2018-07-22T02:08:26.818Z,18.48
2018-07-22T02:11:51.454Z,18.96
2018-07-22T02:15:16.106Z,19.36
2018-07-22T02:18:40.725Z,19.15
2018-07-22T02:22:05.470Z,18.19
2018-07-22T02:25:30.163Z,18.69
2018-07-22T02:28:54.844Z,18.04
2018-07-22T02:32:19.472Z,18.07
2018-07-22T02:35:44.179Z,18.01
2018-07-22T02:39:11.970Z,18.07
2018-07-22T02:42:36.671Z,18.03
2018-07-22T02:46:01.354Z,19.04
2018-07-22T02:49:25.964Z,18.18
2018-07-22T02:52:50.656Z,17.94
2018-07-22T02:56:15.355Z,18.55
2018-07-22T02:59:40.053Z,18.69
2018-07-22T03:03:04.768Z,18.22
2018-07-22T03:06:29.416Z,18.99
2018-07-22T03:09:54.093Z,18.28
2018-07-22T03:13:18.723Z,18.19
2018-07-22T03:16:43.411Z,18.20
2018-07-22T03:20:08.075Z,18.08
2018-07-22T03:23:32.780Z,18.39
2018-07-22T03:26:57.419Z,18.26
2018-07-22T03:30:22.142Z,18.22
2018-07-22T03:33:46.766Z,19.03
2018-07-22T03:37:11.432Z,18.25
2018-07-22T03:40:36.144Z,19.30
2018-07-22T03:44:00.868Z,18.52
2018-07-22T03:47:25.677Z,18.26
2018-07-22T03:50:49.947Z,18.11
2018-07-22T03:54:14.730Z,18.50
2018-07-22T03:57:39.433Z,18.10
2018-07-22T04:01:04.232Z,18.08
2018-07-22T04:04:28.972Z,18.37
2018-07-22T04:07:53.254Z,18.17
2018-07-22T04:11:17.884Z,17.99
2018-07-22T04:14:42.536Z,18.41
2018-07-22T04:18:07.326Z,18.42
2018-07-22T04:21:32.108Z,18.05
2018-07-22T04:24:56.774Z,18.14
2018-07-22T04:28:21.436Z,18.12
2018-07-22T04:31:46.058Z,18.01
2018-07-22T04:35:10.756Z,18.15
2018-07-22T04:38:35.524Z,18.00
2018-07-22T04:42:00.236Z,18.80
2018-07-22T04:45:24.874Z,18.34
2018-07-22T04:48:49.536Z,18.23
2018-07-22T04:52:14.232Z,18.52
2018-07-22T04:55:38.882Z,18.22
2018-07-22T04:59:03.503Z,18.24
2018-07-22T05:02:28.161Z,18.16
2018-07-22T05:05:52.819Z,18.37
2018-07-22T05:09:17.499Z,18.12
2018-07-22T05:12:42.130Z,18.40
2018-07-22T05:16:06.852Z,18.63
2018-07-22T05:19:31.508Z,18.26
2018-07-22T05:22:56.146Z,18.24
2018-07-22T05:26:20.842Z,18.40
2018-07-22T05:29:45.556Z,18.58
2018-07-22T05:33:10.240Z,18.71
2018-07-22T05:36:34.874Z,18.82
2018-07-22T05:39:59.566Z,19.05
2018-07-22T05:43:24.240Z,19.00
2018-07-22T05:46:48.892Z,18.97
2018-07-22T05:50:13.637Z,19.00
2018-07-22T05:53:38.540Z,19.50
2018-07-22T05:57:03.210Z,19.45
2018-07-22T06:00:28.816Z,19.37
2018-07-22T06:03:53.587Z,19.55
2018-07-22T06:07:18.332Z,19.52
2018-07-22T06:10:43.073Z,19.73
2018-07-22T06:14:08.369Z,19.53
2018-07-22T06:17:33.178Z,19.82
2018-07-22T06:20:57.810Z,20.83
2018-07-22T06:24:22.516Z,21.06
2018-07-22T06:27:47.307Z,20.47
2018-07-22T06:31:11.934Z,20.20
2018-07-22T06:34:36.929Z,20.12
2018-07-22T06:38:01.667Z,20.38
2018-07-22T06:41:26.532Z,20.17
2018-07-22T06:44:51.462Z,20.07
2018-07-22T06:48:16.258Z,20.13
2018-07-22T06:51:41.090Z,19.90
2018-07-22T06:55:05.932Z,20.12
2018-07-22T06:58:30.756Z,20.22
2018-07-22T07:01:55.565Z,21.00
2018-07-22T07:05:20.225Z,21.24
2018-07-22T07:08:44.910Z,21.64
2018-07-22T07:12:09.778Z,21.44
2018-07-22T07:15:34.504Z,21.78
2018-07-22T07:18:59.140Z,21.37
2018-07-22T07:22:23.852Z,21.65
2018-07-22T07:25:48.598Z,21.82
2018-07-22T07:29:13.311Z,21.85
2018-07-22T07:32:38.006Z,21.76
2018-07-22T07:36:02.717Z,21.38
2018-07-22T07:39:27.400Z,20.67
2018-07-22T07:42:52.104Z,20.64
2018-07-22T07:46:16.849Z,21.15
2018-07-22T07:49:42.270Z,21.75
2018-07-22T07:53:06.969Z,21.43
2018-07-22T07:56:31.696Z,21.53
2018-07-22T07:59:56.688Z,21.50
2018-07-22T08:03:21.320Z,21.70
2018-07-22T08:06:45.998Z,21.80
2018-07-22T08:10:10.640Z,22.29
2018-07-22T08:13:35.368Z,22.71
2018-07-22T08:17:00.061Z,22.77
2018-07-22T08:20:24.707Z,22.91
2018-07-22T08:23:49.360Z,22.59
2018-07-22T08:27:14.090Z,22.55
2018-07-22T08:30:38.806Z,22.75
2018-07-22T08:34:04.129Z,23.11
2018-07-22T08:37:28.784Z,23.17
2018-07-22T08:40:53.484Z,23.11
2018-07-22T08:44:18.208Z,23.68
2018-07-22T08:47:42.935Z,23.95
2018-07-22T08:51:07.300Z,23.37
2018-07-22T08:54:32.047Z,23.64
2018-07-22T08:57:56.749Z,23.16
2018-07-22T09:01:21.471Z,22.94
2018-07-22T09:04:46.172Z,23.47
2018-07-22T09:08:10.851Z,23.63
2018-07-22T09:11:35.655Z,23.59
2018-07-22T09:15:00.324Z,23.30
2018-07-22T09:18:24.965Z,23.47
2018-07-22T09:21:49.657Z,23.45
2018-07-22T09:25:14.406Z,23.48
2018-07-22T09:28:39.006Z,23.50
2018-07-22T09:32:03.730Z,23.21
2018-07-22T09:35:28.407Z,23.24
2018-07-22T09:38:52.876Z,23.17
2018-07-22T09:42:18.277Z,23.13
2018-07-22T09:45:45.250Z,23.27
2018-07-22T09:49:10.498Z,23.73
2018-07-22T09:52:35.549Z,23.88
2018-07-22T09:56:01.221Z,23.59
2018-07-22T09:59:27.084Z,23.97
2018-07-22T10:02:52.620Z,23.91
2018-07-22T10:06:18.738Z,24.06
2018-07-22T10:09:44.379Z,24.00
2018-07-22T10:13:10.071Z,24.62
2018-07-22T10:16:35.741Z,24.20
2018-07-22T10:20:00.651Z,24.69
2018-07-22T10:23:29.499Z,24.36
2018-07-22T10:26:54.805Z,24.81
2018-07-22T10:30:21.422Z,24.49
2018-07-22T10:33:46.332Z,24.25
2018-07-22T10:37:11.086Z,24.73
2018-07-22T10:40:35.745Z,25.33
2018-07-22T10:44:00.461Z,24.54
2018-07-22T10:47:25.162Z,23.92
2018-07-22T10:50:49.859Z,24.22
2018-07-22T10:54:14.548Z,24.13
2018-07-22T10:57:38.961Z,23.93
2018-07-22T11:01:03.681Z,24.08
2018-07-22T11:04:28.424Z,24.03
2018-07-22T11:07:53.148Z,23.68
2018-07-22T11:11:17.830Z,23.95
2018-07-22T11:14:42.506Z,23.76
2018-07-22T11:18:07.320Z,23.73
2018-07-22T11:21:32.037Z,24.22
2018-07-22T11:24:56.718Z,24.43
2018-07-22T11:28:21.394Z,24.39
2018-07-22T11:31:46.164Z,24.21
2018-07-22T11:35:10.832Z,24.34
2018-07-22T11:38:35.526Z,24.24
2018-07-22T11:41:59.870Z,24.57
2018-07-22T11:45:24.606Z,24.71
2018-07-22T11:48:48.929Z,24.91
2018-07-22T11:52:13.655Z,24.78
2018-07-22T11:55:38.014Z,25.19
2018-07-22T11:59:02.367Z,25.12
2018-07-22T12:02:26.652Z,25.00
2018-07-22T12:05:51.380Z,24.97
2018-07-22T12:09:16.170Z,24.84
2018-07-22T12:12:41.345Z,24.92
2018-07-22T12:16:06.173Z,24.73
2018-07-22T12:19:30.885Z,24.69
2018-07-22T12:22:55.598Z,24.81
2018-07-22T12:26:20.275Z,25.33
2018-07-22T12:29:44.966Z,25.58
2018-07-22T12:33:09.663Z,25.95
2018-07-22T12:36:34.771Z,25.89
2018-07-22T12:39:59.515Z,26.65
2018-07-22T12:43:23.885Z,26.72
2018-07-22T12:46:48.538Z,25.76
2018-07-22T12:50:13.346Z,26.82
2018-07-22T12:53:38.082Z,27.12
2018-07-22T12:57:02.764Z,27.17
2018-07-22T13:00:27.048Z,27.29
2018-07-22T13:03:51.872Z,28.00
2018-07-22T13:07:17.420Z,28.24
2018-07-22T13:10:41.792Z,27.63
2018-07-22T13:14:06.954Z,27.77
2018-07-22T13:17:31.725Z,27.68
2018-07-22T13:20:56.358Z,28.21
2018-07-22T13:24:21.055Z,27.80
2018-07-22T13:27:45.708Z,27.65
2018-07-22T13:31:10.352Z,27.00
2018-07-22T13:34:35.137Z,27.33
2018-07-22T13:37:59.879Z,26.77
2018-07-22T13:41:24.480Z,26.44
2018-07-22T13:44:49.181Z,26.42
2018-07-22T13:48:13.839Z,26.20
2018-07-22T13:51:38.144Z,26.11
2018-07-22T13:55:03.407Z,25.88
2018-07-22T13:58:29.050Z,25.65
2018-07-22T14:01:53.516Z,25.77
2018-07-22T14:05:18.216Z,25.23
2018-07-22T14:08:43.092Z,25.36
2018-07-22T14:12:07.655Z,25.25
2018-07-22T14:15:33.458Z,25.35
2018-07-22T14:19:00.568Z,25.14
2018-07-22T14:22:25.938Z,24.97
2018-07-22T14:25:52.872Z,25.32
2018-07-22T14:29:18.768Z,25.13
2018-07-22T14:32:45.314Z,25.01
2018-07-22T14:36:10.002Z,25.08
2018-07-22T14:39:34.825Z,25.22
2018-07-22T14:42:59.685Z,24.85
2018-07-22T14:46:25.500Z,25.04
2018-07-22T14:49:50.487Z,24.79
2018-07-22T14:53:15.371Z,25.14
2018-07-22T14:56:40.066Z,25.04
2018-07-22T15:00:05.368Z,25.19
2018-07-22T15:03:30.044Z,24.78
2018-07-22T15:06:54.727Z,25.02
2018-07-22T15:10:19.481Z,25.10
2018-07-22T15:13:44.276Z,25.06
2018-07-22T15:17:09.049Z,24.74
2018-07-22T15:20:33.837Z,24.82
2018-07-22T15:23:58.610Z,25.02
2018-07-22T15:27:23.057Z,25.06
2018-07-22T15:30:47.791Z,24.69
2018-07-22T15:34:12.578Z,24.69
2018-07-22T15:37:38.380Z,24.75
2018-07-22T15:41:12.089Z,24.85
2018-07-22T15:44:37.455Z,24.59
2018-07-22T15:48:01.836Z,24.70
2018-07-22T15:51:26.624Z,24.71
2018-07-22T15:54:51.828Z,24.86
2018-07-22T15:58:16.214Z,24.78
2018-07-22T16:01:41.083Z,24.67
2018-07-22T16:05:05.936Z,24.64
2018-07-22T16:08:30.725Z,24.63
2018-07-22T16:11:55.526Z,24.60
2018-07-22T16:15:20.226Z,24.73
2018-07-22T16:18:44.933Z,24.68
2018-07-22T16:22:09.687Z,24.54
2018-07-22T16:25:35.553Z,24.94
2018-07-22T16:29:00.198Z,24.79
2018-07-22T16:32:25.057Z,24.77
2018-07-22T16:35:49.750Z,24.84
2018-07-22T16:39:14.449Z,24.92
2018-07-22T16:42:39.528Z,24.68
2018-07-22T16:46:04.410Z,24.49
2018-07-22T16:49:29.173Z,24.68
2018-07-22T16:52:53.464Z,24.64
2018-07-22T16:56:17.754Z,24.55
2018-07-22T16:59:42.503Z,24.64
2018-07-22T17:03:07.251Z,24.63
2018-07-22T17:06:32.005Z,24.83
2018-07-22T17:09:56.835Z,24.64
2018-07-22T17:13:22.297Z,24.39
2018-07-22T17:16:47.274Z,24.36
2018-07-22T17:20:12.087Z,24.13
2018-07-22T17:23:37.936Z,24.20
2018-07-22T17:27:03.313Z,23.89
2018-07-22T17:30:28.002Z,23.95
2018-07-22T17:33:52.976Z,23.92
2018-07-22T17:37:19.879Z,23.78
2018-07-22T17:40:45.106Z,23.69
2018-07-22T17:44:10.219Z,23.70
2018-07-22T17:47:35.123Z,23.81
2018-07-22T17:50:59.926Z,23.84
2018-07-22T17:54:25.203Z,23.92
2018-07-22T17:57:49.864Z,23.74
2018-07-22T18:01:14.593Z,24.03
2018-07-22T18:04:39.297Z,23.99
2018-07-22T18:08:04.013Z,23.25
2018-07-22T18:11:29.019Z,22.84
2018-07-22T18:14:53.786Z,22.72
2018-07-22T18:18:18.607Z,22.22
2018-07-22T18:21:44.111Z,22.00
2018-07-22T18:25:08.937Z,21.97
2018-07-22T18:28:33.683Z,22.32
2018-07-22T18:31:58.495Z,22.32
2018-07-22T18:35:23.304Z,22.00
2018-07-22T18:38:48.008Z,22.60
2018-07-22T18:42:12.787Z,22.19
2018-07-22T18:45:37.782Z,21.98
2018-07-22T18:49:02.844Z,22.02
2018-07-22T18:56:04.381Z,21.67
2018-07-22T18:59:29.550Z,21.44
2018-07-22T19:02:54.582Z,21.46
2018-07-22T19:06:19.805Z,21.34
2018-07-22T19:09:45.852Z,21.52
2018-07-22T19:13:12.114Z,21.10
2018-07-22T19:16:37.375Z,21.07
2018-07-22T19:20:03.742Z,20.63
2018-07-22T19:23:46.477Z,20.60
2018-07-22T19:27:12.492Z,20.89
2018-07-22T19:30:38.204Z,20.52
2018-07-22T19:34:03.630Z,20.43
2018-07-22T19:37:30.922Z,20.84
2018-07-22T19:40:58.241Z,20.73
2018-07-22T19:44:25.382Z,20.58
2018-07-22T19:47:50.967Z,20.91
2018-07-22T19:51:16.857Z,20.72
2018-07-22T19:54:42.976Z,20.60
2018-07-22T19:58:08.028Z,20.61
2018-07-22T20:01:37.213Z,20.48
2018-07-22T20:05:02.582Z,20.30
2018-07-22T20:08:27.552Z,20.22
2018-07-22T20:11:53.484Z,20.21
2018-07-22T20:15:18.967Z,20.62
2018-07-22T20:18:44.935Z,20.41
2018-07-22T20:22:10.104Z,20.26
2018-07-22T20:25:35.132Z,20.20
2018-07-22T20:28:59.874Z,20.32
2018-07-22T20:32:24.885Z,20.87
2018-07-22T20:35:49.670Z,20.26
2018-07-22T20:39:14.700Z,20.52
2018-07-22T20:42:39.279Z,21.08
2018-07-22T20:46:03.984Z,20.44
2018-07-22T20:49:28.869Z,20.09
2018-07-22T20:52:53.708Z,20.16
2018-07-22T20:56:18.492Z,20.27
2018-07-22T20:59:43.572Z,20.06
2018-07-22T21:03:08.325Z,19.96
2018-07-22T21:06:33.186Z,20.09
2018-07-22T21:09:57.880Z,20.20
2018-07-22T21:13:27.193Z,19.94
2018-07-22T21:16:51.948Z,20.00
2018-07-22T21:20:17.957Z,19.92
2018-07-22T21:23:43.749Z,19.81
2018-07-22T21:27:08.428Z,20.04
2018-07-22T21:30:33.295Z,19.95
2018-07-22T21:34:01.701Z,20.35
2018-07-22T21:37:26.401Z,19.96
2018-07-22T21:40:52.646Z,20.05
2018-07-22T21:44:17.411Z,20.39
2018-07-22T21:47:42.052Z,19.92
2018-07-22T21:51:06.808Z,19.89
2018-07-22T21:54:31.534Z,19.86
2018-07-22T21:57:56.210Z,19.86
2018-07-22T22:01:20.993Z,20.13
2018-07-22T22:04:45.722Z,19.96
2018-07-22T22:08:10.938Z,19.81
2018-07-22T22:11:35.627Z,19.70
2018-07-22T22:15:00.284Z,19.50
2018-07-22T22:18:24.914Z,19.46
2018-07-22T22:21:49.657Z,19.72
2018-07-22T22:25:14.426Z,19.84
2018-07-22T22:28:39.285Z,19.70
2018-07-22T22:32:04.032Z,19.73
2018-07-22T22:35:28.815Z,19.61
2018-07-22T22:38:53.558Z,19.90
2018-07-22T22:42:18.269Z,19.73
2018-07-22T22:45:43.007Z,19.68
2018-07-22T22:49:08.133Z,20.12
2018-07-22T22:52:32.496Z,19.54
2018-07-22T22:55:57.313Z,19.41
2018-07-22T22:59:23.927Z,20.19
2018-07-22T23:02:48.771Z,20.24
2018-07-22T23:06:13.554Z,19.99
2018-07-22T23:09:38.687Z,19.89
2018-07-22T23:13:03.462Z,19.66
2018-07-22T23:16:28.217Z,19.58
2018-07-22T23:19:52.612Z,19.65
2018-07-22T23:23:17.315Z,19.76
2018-07-22T23:26:42.095Z,19.59
2018-07-22T23:30:06.895Z,19.73
2018-07-22T23:33:31.628Z,19.76
2018-07-22T23:36:57.321Z,19.98
2018-07-22T23:40:21.997Z,20.00
2018-07-22T23:43:46.419Z,19.72
2018-07-22T23:47:11.227Z,19.73
2018-07-22T23:50:35.663Z,19.44
2018-07-22T23:54:00.405Z,19.71
2018-07-22T23:57:25.189Z,20.52
